Time;durP1;ratioP1;P1;durP2;ratioP2;P2;SDS_P1;SDS_P2;PMS_P1;PMS_P2;Temp;Humidity;BMP_temperature;BMP_pressure;BME280_temperature;BME280_humidity;BME280_pressure;Samples;Min_cycle;Max_cycle;Signal;HPM_P1;HPM_P2
2022/05/16 00:02:24;;;;;;;8.15;4.88;;;;;;;16.65;87.43;94879.59;5051525;28;20200;-61
2022/05/16 00:04:51;;;;;;;8.30;5.45;;;;;;;16.71;87.24;94879.75;5051628;28;20186;-59
2022/05/16 00:07:18;;;;;;;5.80;5.10;;;;;;;16.72;87.34;94876.22;5051823;28;20174;-61
2022/05/16 00:09:44;;;;;;;6.20;5.60;;;;;;;16.70;87.97;94873.00;5051939;28;20205;-61
2022/05/16 00:12:11;;;;;;;6.03;5.43;;;;;;;16.72;87.84;94870.31;5050304;28;20294;-60
2022/05/16 00:14:38;;;;;;;7.05;5.00;;;;;;;16.73;87.78;94870.13;5050489;28;20189;-61
2022/05/16 00:17:04;;;;;;;8.02;5.85;;;;;;;16.68;88.13;94859.53;5050316;28;20190;-60
2022/05/16 00:19:30;;;;;;;8.40;5.50;;;;;;;16.81;88.00;94855.69;5051934;28;20193;-61
2022/05/16 00:21:56;;;;;;;6.28;5.68;;;;;;;16.91;88.09;94856.31;5050418;28;20280;-59
2022/05/16 00:24:26;;;;;;;5.72;4.95;;;;;;;16.82;88.54;94852.97;5051958;28;20205;-60
2022/05/16 00:26:55;;;;;;;5.80;5.35;;;;;;;16.61;89.32;94840.63;5051721;28;20186;-62
2022/05/16 00:29:21;;;;;;;9.13;5.95;;;;;;;16.43;90.64;94832.25;5051997;28;20277;-60
2022/05/16 00:31:46;;;;;;;6.05;5.13;;;;;;;16.50;89.08;94856.34;5050315;28;20296;-60
2022/05/16 00:34:12;;;;;;;9.35;5.50;;;;;;;16.35;89.42;94844.28;5051854;28;20228;-60
2022/05/16 00:36:37;;;;;;;6.80;5.32;;;;;;;16.21;89.38;94840.59;5050168;28;20185;-59
2022/05/16 00:39:03;;;;;;;7.93;5.18;;;;;;;16.12;89.52;94840.75;5050150;28;20190;-61
2022/05/16 00:41:29;;;;;;;6.78;5.43;;;;;;;16.03;90.58;94826.31;5066837;23;20226;-60
2022/05/16 00:43:58;;;;;;;7.88;5.55;;;;;;;15.91;90.82;94828.38;5044167;28;20202;-60
2022/05/16 00:46:29;;;;;;;8.32;5.93;;;;;;;15.96;90.19;94844.06;5051634;28;20251;-59
2022/05/16 00:48:56;;;;;;;5.18;4.65;;;;;;;15.98;89.00;94854.19;5051115;28;20200;-59
2022/05/16 00:51:45;;;;;;;6.38;4.90;;;;;;;15.92;89.08;94851.28;5051438;28;20214;-61
2022/05/16 00:54:19;;;;;;;6.38;5.10;;;;;;;15.81;88.49;94858.47;5051134;28;20562;-61
2022/05/16 00:56:47;;;;;;;4.97;4.57;;;;;;;15.84;88.35;94858.16;5052705;28;20181;-58
2022/05/16 00:59:12;;;;;;;5.45;4.95;;;;;;;15.72;88.08;94855.09;5054833;28;20280;-60
2022/05/16 01:07:09;;;;;;;5.28;4.78;;;;;;;15.21;90.00;94833.88;5055379;28;20243;-61
2022/05/16 01:09:34;;;;;;;5.50;4.43;;;;;;;15.04;90.41;94827.88;5053373;28;20198;-59
2022/05/16 01:12:00;;;;;;;4.85;4.35;;;;;;;14.91;91.04;94823.16;5054125;23;20244;-60
2022/05/16 01:15:06;;;;;;;7.85;4.63;;;;;;;14.87;91.75;94815.94;5054514;28;20197;-60
2022/05/16 01:17:32;;;;;;;6.38;4.47;;;;;;;14.90;92.25;94816.44;4993044;28;20223;-59
2022/05/16 01:19:57;;;;;;;6.65;5.15;;;;;;;14.85;92.91;94816.09;4993056;28;20194;-59
2022/05/16 01:22:24;;;;;;;6.07;4.33;;;;;;;14.80;92.58;94813.19;5021995;28;20258;-59
2022/05/16 01:24:52;;;;;;;5.00;4.53;;;;;;;14.73;92.61;94807.06;5054672;28;20575;-59
2022/05/16 01:27:17;;;;;;;6.13;4.87;;;;;;;14.69;92.68;94812.63;5054768;28;20200;-59
2022/05/16 01:29:43;;;;;;;6.63;4.90;;;;;;;14.68;92.94;94813.59;5054583;28;20185;-61
2022/05/16 01:32:10;;;;;;;4.97;4.38;;;;;;;14.62;92.98;94816.75;5052795;28;20227;-59
2022/05/16 01:34:37;;;;;;;4.72;4.32;;;;;;;14.66;92.86;94818.88;5054363;28;20628;-59
2022/05/16 01:37:03;;;;;;;10.93;5.15;;;;;;;14.79;91.75;94823.56;5054676;28;20193;-61
2022/05/16 01:39:28;;;;;;;5.32;4.50;;;;;;;14.73;91.68;94827.53;5052701;28;20198;-60
2022/05/16 01:41:54;;;;;;;5.97;4.65;;;;;;;14.81;92.37;94824.22;5054471;28;20197;-59
2022/05/16 01:44:19;;;;;;;6.40;4.68;;;;;;;14.72;92.00;94817.47;5053917;28;20225;-61
2022/05/16 01:46:45;;;;;;;5.53;4.93;;;;;;;14.73;92.50;94819.84;5054576;28;20190;-59
2022/05/16 01:49:11;;;;;;;7.80;4.50;;;;;;;14.64;92.76;94812.28;5053943;28;20196;-61
2022/05/16 01:51:38;;;;;;;5.25;4.75;;;;;;;14.68;93.34;94816.16;5052751;28;20213;-60
2022/05/16 01:54:04;;;;;;;4.72;4.13;;;;;;;14.73;92.75;94819.84;5052638;28;20198;-59
2022/05/16 01:56:32;;;;;;;6.18;4.88;;;;;;;14.77;92.89;94818.59;5054135;28;20181;-62
2022/05/16 01:58:59;;;;;;;5.40;4.90;;;;;;;14.81;92.58;94824.22;5053642;28;20574;-59
2022/05/16 02:01:24;;;;;;;11.00;5.03;;;;;;;14.74;93.18;94826.59;5054023;28;20209;-58
2022/05/16 02:03:50;;;;;;;6.93;4.85;;;;;;;14.82;92.97;94824.09;5053500;28;20285;-60
2022/05/16 02:06:17;;;;;;;5.00;4.47;;;;;;;14.71;93.56;94826.88;5054315;28;20255;-61
2022/05/16 02:08:45;;;;;;;5.18;4.72;;;;;;;14.86;92.06;94839.94;5052784;28;20281;-60
2022/05/16 02:11:11;;;;;;;6.43;4.10;;;;;;;14.84;91.19;94852.09;5053580;28;20237;-60
2022/05/16 02:13:39;;;;;;;7.63;4.85;;;;;;;14.62;91.13;94860.25;5053653;28;20277;-58
2022/05/16 02:16:07;;;;;;;5.35;4.85;;;;;;;14.66;92.98;94834.22;5052282;28;20181;-60
2022/05/16 02:18:32;;;;;;;7.85;5.68;;;;;;;14.86;93.07;94838.19;5053281;28;20267;-59
2022/05/16 02:26:27;;;;;;;7.03;5.25;;;;;;;15.06;92.30;94837.03;5053694;28;20265;-61
2022/05/16 02:28:52;;;;;;;7.65;4.95;;;;;;;15.00;93.15;94829.94;5053149;28;20687;-59
2022/05/16 02:31:20;;;;;;;6.88;5.50;;;;;;;14.83;94.11;94823.13;5053378;28;20245;-61
2022/05/16 02:33:46;;;;;;;9.88;5.70;;;;;;;14.91;94.04;94838.53;5053114;28;20268;-58
2022/05/16 02:36:12;;;;;;;8.25;5.18;;;;;;;14.97;90.76;94853.28;5051695;28;20186;-59
2022/05/16 02:38:37;;;;;;;9.48;4.57;;;;;;;14.87;89.23;94865.38;5053037;28;20197;-59
2022/05/16 02:41:03;;;;;;;5.65;4.65;;;;;;;14.61;90.23;94856.88;5053355;28;20178;-58
2022/05/16 02:43:28;;;;;;;5.65;4.38;;;;;;;14.50;90.55;94849.47;5052907;28;20255;-61
2022/05/16 02:45:54;;;;;;;7.13;4.15;;;;;;;14.36;90.59;94847.44;5053105;28;20189;-61
2022/05/16 02:48:19;;;;;;;5.05;4.20;;;;;;;14.16;91.22;94840.81;5052806;28;20675;-61
2022/05/16 02:50:44;;;;;;;4.57;4.17;;;;;;;14.02;92.62;94828.56;5053008;28;20215;-59
2022/05/16 02:53:10;;;;;;;6.20;5.10;;;;;;;13.93;93.12;94824.31;5052708;28;20205;-61
2022/05/16 02:55:36;;;;;;;4.90;4.30;;;;;;;13.87;93.21;94822.34;5051389;28;20193;-61
2022/05/16 02:58:01;;;;;;;5.93;4.40;;;;;;;13.81;93.91;94820.38;5052486;28;20209;-60
2022/05/16 03:00:27;;;;;;;6.50;4.27;;;;;;;13.71;95.56;94828.13;5052382;28;20180;-58
2022/05/16 03:02:52;;;;;;;7.60;4.60;;;;;;;13.51;97.30;94833.47;5052512;28;20202;-60
2022/05/16 03:05:18;;;;;;;5.57;5.07;;;;;;;13.44;98.56;94830.69;5052756;28;20326;-60
2022/05/16 03:07:44;;;;;;;5.80;5.20;;;;;;;13.52;98.73;94830.78;5052686;28;20244;-59
2022/05/16 03:10:11;;;;;;;5.70;5.10;;;;;;;13.45;99.72;94829.75;5052630;28;20196;-58
2022/05/16 03:12:37;;;;;;;5.33;4.80;;;;;;;13.43;100.00;94831.66;5051299;28;20314;-62
2022/05/16 03:15:03;;;;;;;8.80;5.30;;;;;;;13.60;100.00;94842.81;5052513;28;20174;-60
2022/05/16 03:17:29;;;;;;;6.13;5.63;;;;;;;13.56;100.00;94833.84;5051266;28;20247;-62
2022/05/16 03:19:54;;;;;;;7.27;5.50;;;;;;;13.45;100.00;94827.97;5051020;28;20235;-61
2022/05/16 03:22:20;;;;;;;6.17;5.50;;;;;;;13.38;100.00;94829.50;5050951;28;20276;-60
2022/05/16 03:24:45;;;;;;;7.57;5.20;;;;;;;13.36;100.00;94831.41;5052136;28;20181;-59
2022/05/16 03:27:11;;;;;;;6.43;5.17;;;;;;;13.25;100.00;94834.13;5052382;28;20205;-60
2022/05/16 03:29:36;;;;;;;6.30;4.90;;;;;;;13.15;100.00;94835.91;5052173;28;20196;-62
2022/05/16 03:32:02;;;;;;;5.63;5.03;;;;;;;13.19;100.00;94844.91;5052608;28;20395;-60
2022/05/16 03:34:27;;;;;;;5.23;4.77;;;;;;;13.09;100.00;94844.16;5050963;28;20201;-60
2022/05/16 03:36:53;;;;;;;6.20;5.67;;;;;;;13.44;100.00;94849.38;5050931;28;20633;-60
2022/05/16 03:42:02;;;;;;;9.10;5.63;;;;;;;13.72;100.00;94857.00;5052539;28;20204;-62
2022/05/16 03:44:28;;;;;;;8.10;5.70;;;;;;;13.84;100.00;94860.97;5052007;28;20201;-59
2022/05/16 03:46:54;;;;;;;7.78;6.00;;;;;;;13.89;100.00;94859.59;5052328;28;20181;-59
2022/05/16 03:49:19;;;;;;;7.60;6.25;;;;;;;13.96;100.00;94859.81;5050557;28;20193;-58
2022/05/16 03:51:45;;;;;;;7.10;6.40;;;;;;;14.06;100.00;94863.09;5050895;28;20280;-59
2022/05/16 03:54:11;;;;;;;8.80;6.40;;;;;;;14.08;100.00;94866.31;5051854;28;20197;-59
2022/05/16 03:56:36;;;;;;;9.07;6.78;;;;;;;13.81;100.00;94874.03;5052300;28;20185;-60
2022/05/16 03:59:02;;;;;;;8.15;6.53;;;;;;;14.18;100.00;94880.63;5052034;28;20752;-60
2022/05/16 04:01:28;;;;;;;9.00;6.93;;;;;;;14.28;100.00;94885.72;5052272;28;20201;-58
2022/05/16 04:03:54;;;;;;;7.80;6.85;;;;;;;14.27;100.00;94886.63;5051761;28;20275;-60
2022/05/16 04:06:20;;;;;;;8.38;7.57;;;;;;;14.51;100.00;94886.06;5051905;28;20264;-60
2022/05/16 04:08:46;;;;;;;9.47;8.00;;;;;;;14.51;100.00;94891.19;5052049;28;20201;-60
2022/05/16 04:11:17;;;;;;;7.88;6.93;;;;;;;14.44;100.00;94880.75;5050341;28;20217;-61
2022/05/16 04:13:44;;;;;;;8.10;7.40;;;;;;;14.62;100.00;94888.41;5050338;28;20235;-60
2022/05/16 04:16:09;;;;;;;7.97;6.60;;;;;;;14.72;100.00;94897.59;5051975;28;20178;-59
2022/05/16 04:18:36;;;;;;;11.48;7.18;;;;;;;14.75;100.00;94899.84;5050461;28;20198;-60
2022/05/16 04:21:02;;;;;;;8.50;6.72;;;;;;;14.70;100.00;94912.31;5051874;28;20177;-61
2022/05/16 04:23:28;;;;;;;8.88;7.50;;;;;;;14.68;100.00;94908.28;5051580;28;20196;-59
2022/05/16 04:25:53;;;;;;;7.45;6.75;;;;;;;14.85;100.00;94915.91;5051915;28;20624;-58
2022/05/16 04:28:18;;;;;;;13.63;7.70;;;;;;;14.89;99.98;94921.53;5051546;28;20201;-60
2022/05/16 04:30:44;;;;;;;14.37;7.07;;;;;;;14.87;99.45;94920.88;5051702;28;20210;-60
2022/05/16 04:33:09;;;;;;;7.18;6.47;;;;;;;14.83;100.00;94907.59;5054724;28;20199;-61
2022/05/16 04:35:38;;;;;;;9.45;8.32;;;;;;;14.79;100.00;94905.47;5055443;28;20182;-61
2022/05/16 04:38:05;;;;;;;10.70;7.05;;;;;;;15.02;100.00;94914.28;5055260;28;20527;-59
2022/05/16 04:40:30;;;;;;;12.43;10.43;;;;;;;14.89;98.25;94942.03;5055306;28;20182;-61
2022/05/16 04:42:57;;;;;;;9.35;6.35;;;;;;;14.55;97.37;94934.22;5055214;28;20255;-62
2022/05/16 04:45:30;;;;;;;8.63;5.72;;;;;;;14.47;98.29;94929.06;5053844;28;20189;-59
2022/05/16 04:48:06;;;;;;;8.60;6.85;;;;;;;14.54;98.72;94924.97;5055164;28;20204;-60
2022/05/16 04:50:33;;;;;;;7.60;5.75;;;;;;;14.60;97.64;94934.63;5054983;28;20185;-59
2022/05/16 04:52:59;;;;;;;5.90;5.30;;;;;;;14.61;98.46;94930.28;5070392;28;20193;-60
2022/05/16 04:55:27;;;;;;;10.13;5.68;;;;;;;14.74;96.25;94954.56;5054894;28;20178;-59
2022/05/16 04:57:52;;;;;;;8.95;5.82;;;;;;;14.89;95.20;94955.63;5054648;28;20197;-62
2022/05/16 05:00:20;;;;;;;7.00;5.43;;;;;;;14.86;95.10;94953.38;5054763;28;20174;-60
2022/05/16 05:02:46;;;;;;;8.00;5.22;;;;;;;14.73;97.80;94923.97;5054895;28;20201;-59
2022/05/16 05:05:13;;;;;;;8.73;5.97;;;;;;;14.69;98.05;94941.38;5054596;28;20189;-60
2022/05/16 05:07:39;;;;;;;7.20;6.05;;;;;;;14.86;97.84;94934.66;5054497;28;20208;-59
2022/05/16 05:15:36;;;;;;;7.32;5.45;;;;;;;15.04;92.63;94966.16;5054806;28;20188;-59
2022/05/16 05:18:03;;;;;;;7.37;5.13;;;;;;;14.77;96.83;94931.22;5054340;28;20205;-59
2022/05/16 05:20:28;;;;;;;6.40;4.97;;;;;;;15.05;93.94;94963.44;5054427;28;20207;-60
2022/05/16 05:22:54;;;;;;;7.63;5.22;;;;;;;15.28;93.15;94979.13;5054471;28;20205;-59
2022/05/16 05:25:20;;;;;;;5.90;5.10;;;;;;;15.44;92.10;94984.38;5054309;28;20182;-60
2022/05/16 05:27:49;;;;;;;6.50;5.45;;;;;;;15.37;90.92;94992.78;5054209;28;20193;-60
2022/05/16 05:30:18;;;;;;;8.88;5.60;;;;;;;15.29;93.31;94972.25;5054106;28;20579;-60
2022/05/16 05:32:44;;;;;;;6.55;5.90;;;;;;;15.47;91.50;94993.53;5054464;28;20288;-61
2022/05/16 05:35:10;;;;;;;8.70;5.80;;;;;;;15.42;92.64;94973.47;5054376;28;20305;-61
2022/05/16 05:37:36;;;;;;;8.13;5.15;;;;;;;15.65;91.82;94981.47;5054156;28;20813;-61
2022/05/16 05:40:04;;;;;;;10.85;5.70;;;;;;;15.85;91.14;94988.78;5054044;28;20170;-61
2022/05/16 05:42:30;;;;;;;7.45;5.65;;;;;;;15.68;92.51;94971.69;5054347;28;20682;-58
2022/05/16 05:44:56;;;;;;;7.03;5.32;;;;;;;15.93;91.44;94976.00;5053101;28;20185;-59
2022/05/16 05:47:22;;;;;;;6.45;5.75;;;;;;;16.01;90.15;94992.34;5054397;28;20181;-60
2022/05/16 05:49:47;;;;;;;6.75;5.65;;;;;;;16.26;89.76;95001.75;5053933;28;20697;-62
2022/05/16 05:52:15;;;;;;;10.48;7.28;;;;;;;16.34;88.30;95010.25;5054335;28;20213;-60
2022/05/16 05:54:41;;;;;;;6.75;6.05;;;;;;;16.18;91.10;94986.34;5053596;28;20223;-61
2022/05/16 05:57:07;;;;;;;8.13;6.75;;;;;;;16.49;87.06;95028.47;5052152;28;20292;-61
2022/05/16 05:59:33;;;;;;;7.68;5.65;;;;;;;16.50;85.67;95037.78;5053627;28;20269;-61
2022/05/16 06:01:59;;;;;;;7.43;6.28;;;;;;;16.12;88.44;94985.16;5060618;23;20287;-62
2022/05/16 06:04:24;;;;;;;9.25;7.13;;;;;;;16.28;88.51;94995.47;5053533;28;20205;-62
2022/05/16 06:06:49;;;;;;;7.55;5.72;;;;;;;16.40;87.56;95009.63;5053840;28;20185;-63
2022/05/16 06:09:15;;;;;;;14.95;10.43;;;;;;;16.51;87.29;95006.81;5053487;28;20259;-61
2022/05/16 06:11:41;;;;;;;11.98;6.32;;;;;;;16.58;85.48;95023.19;5053571;28;20209;-60
2022/05/16 06:14:06;;;;;;;11.82;6.25;;;;;;;16.75;85.51;95021.47;5052269;28;20639;-62
2022/05/16 06:16:32;;;;;;;7.72;6.18;;;;;;;16.88;84.76;95028.72;5053539;28;20552;-62
2022/05/16 06:18:57;;;;;;;9.70;6.28;;;;;;;17.15;81.72;95054.09;5053371;28;20250;-60
2022/05/16 06:21:23;;;;;;;13.05;7.55;;;;;;;17.07;83.67;95018.13;5053536;28;20722;-59
2022/05/16 06:23:48;;;;;;;11.23;7.45;;;;;;;17.29;83.39;95022.63;5051822;28;20208;-59
2022/05/16 06:26:21;;;;;;;8.45;6.65;;;;;;;17.43;82.89;95025.34;5053561;28;20220;-62
2022/05/16 06:28:47;;;;;;;15.77;6.45;;;;;;;17.54;81.70;95037.91;5053355;28;20205;-58
2022/05/16 06:31:12;;;;;;;7.68;6.53;;;;;;;17.59;82.68;95027.91;5051774;28;20701;-60
2022/05/16 06:33:38;;;;;;;14.98;6.53;;;;;;;17.61;82.48;95022.63;5053449;28;20347;-60
2022/05/16 06:36:05;;;;;;;7.72;6.57;;;;;;;17.71;82.54;95020.69;5051893;28;20181;-59
2022/05/16 06:38:34;;;;;;;6.53;5.70;;;;;;;17.93;81.42;95034.59;5053033;28;20239;-59
2022/05/16 06:41:00;;;;;;;8.25;6.43;;;;;;;17.92;81.69;95023.50;5052974;28;20189;-60
2022/05/16 06:43:27;;;;;;;10.20;7.03;;;;;;;17.95;79.43;95059.22;5053057;28;20706;-61
2022/05/16 06:45:53;;;;;;;16.35;7.57;;;;;;;17.95;78.93;95061.78;5052765;28;20181;-59
2022/05/16 06:48:19;;;;;;;12.30;6.93;;;;;;;17.83;76.76;95083.69;5052954;28;20280;-59
2022/05/16 06:50:47;;;;;;;13.27;6.97;;;;;;;17.77;76.31;95084.31;5052915;28;20210;-61
2022/05/16 06:53:19;;;;;;;12.57;7.07;;;;;;;17.70;76.30;95073.06;5051321;28;20205;-59
2022/05/16 06:55:44;;;;;;;9.07;6.45;;;;;;;18.08;75.31;95087.78;5052446;28;20658;-61
2022/05/16 06:58:10;;;;;;;13.80;7.00;;;;;;;17.98;74.15;95092.31;5052662;28;20585;-61
2022/05/16 07:00:36;;;;;;;20.90;7.13;;;;;;;18.08;74.54;95071.56;5052842;28;20185;-61
2022/05/16 07:03:03;;;;;;;9.82;6.68;;;;;;;18.15;73.61;95090.50;5051251;28;20209;-60
2022/05/16 07:05:28;;;;;;;19.15;7.47;;;;;;;18.26;74.34;95078.09;5052412;28;20269;-61
2022/05/16 07:07:55;;;;;;;15.02;8.25;;;;;;;18.36;74.20;95070.97;5052581;28;20277;-62
2022/05/16 07:10:21;;;;;;;10.63;7.97;;;;;;;18.49;74.45;95064.50;5050926;28;20185;-60
2022/05/16 07:12:46;;;;;;;14.15;7.78;;;;;;;18.59;76.10;95035.00;5052555;28;20216;-61
2022/05/16 07:15:13;;;;;;;22.48;8.82;;;;;;;18.87;75.65;95040.47;5052440;28;20177;-60
2022/05/16 07:17:39;;;;;;;11.15;7.20;;;;;;;19.27;74.19;95066.78;5052545;28;20208;-62
2022/05/16 07:20:05;;;;;;;11.20;8.25;;;;;;;19.20;71.71;95098.59;5052168;28;20170;-62
2022/05/16 07:22:30;;;;;;;22.02;9.52;;;;;;;19.17;71.25;95089.41;5052533;28;20186;-61
2022/05/16 07:24:58;;;;;;;9.55;6.63;;;;;;;19.70;69.64;95119.53;5052348;28;20617;-59
2022/05/16 07:30:09;;;;;;;8.75;7.63;;;;;;;20.10;69.87;95105.44;5052407;28;20220;-61
2022/05/16 07:32:44;;;;;;;12.27;7.65;;;;;;;20.21;68.66;95123.13;5050850;28;20226;-61
2022/05/16 07:35:12;;;;;;;12.00;8.00;;;;;;;20.17;66.97;95142.50;5052074;28;20162;-61
2022/05/16 07:37:38;;;;;;;12.18;7.82;;;;;;;20.28;66.67;95133.56;5051920;28;20205;-61
2022/05/16 07:40:07;;;;;;;12.38;7.80;;;;;;;20.36;67.63;95110.22;5051791;28;20180;-62
2022/05/16 07:42:33;;;;;;;10.63;7.97;;;;;;;20.35;67.63;95106.03;5050758;28;20212;-59
2022/05/16 07:45:00;;;;;;;12.40;7.82;;;;;;;20.49;65.15;95154.28;5051870;28;20173;-62
2022/05/16 07:47:25;;;;;;;11.27;8.55;;;;;;;20.48;66.84;95095.88;5050807;28;20542;-60
2022/05/16 07:49:51;;;;;;;21.23;9.00;;;;;;;20.39;65.22;95135.69;5052131;28;20200;-62
2022/05/16 07:52:16;;;;;;;18.15;10.23;;;;;;;20.10;65.01;95134.66;5052132;28;20209;-59
2022/05/16 07:54:42;;;;;;;13.80;8.13;;;;;;;20.41;64.77;95121.63;5051785;28;20181;-60
2022/05/16 07:57:07;;;;;;;18.52;8.43;;;;;;;20.86;63.84;95155.00;5050552;28;20185;-61
2022/05/16 07:59:33;;;;;;;17.35;8.90;;;;;;;20.81;65.88;95094.47;5051772;28;20197;-62
2022/05/16 08:01:58;;;;;;;13.32;9.57;;;;;;;20.81;63.67;95134.06;5051945;28;20201;-61
2022/05/16 08:04:24;;;;;;;11.07;8.80;;;;;;;20.72;62.46;95162.78;5051622;28;20287;-61
2022/05/16 08:06:49;;;;;;;26.25;9.68;;;;;;;21.04;63.04;95140.91;5052757;28;20182;-63
2022/05/16 08:11:59;;;;;;;14.38;8.65;;;;;;;21.26;60.75;95166.63;5056047;28;20247;-60
2022/05/16 08:14:24;;;;;;;13.38;8.40;;;;;;;21.47;59.63;95200.28;5055781;28;20571;-61
2022/05/16 08:16:50;;;;;;;17.60;9.15;;;;;;;21.42;57.90;95209.59;5055965;28;20178;-59
2022/05/16 08:19:15;;;;;;;15.65;7.60;;;;;;;21.34;59.85;95152.78;5055541;28;20608;-60
2022/05/16 08:21:42;;;;;;;13.95;7.85;;;;;;;21.63;60.84;95134.56;5055515;28;20679;-61
2022/05/16 08:24:09;;;;;;;9.25;6.32;;;;;;;21.82;55.25;95254.84;5055360;28;20193;-59
2022/05/16 08:26:36;;;;;;;21.73;7.68;;;;;;;22.21;55.63;95208.59;5055821;28;20231;-61
2022/05/16 08:29:02;;;;;;;5.53;4.53;;;;;;;22.37;51.54;95286.06;5055309;28;20201;-61
2022/05/16 08:31:28;;;;;;;9.23;4.53;;;;;;;22.35;51.63;95255.16;5055743;28;20686;-61
2022/05/16 08:33:56;;;;;;;7.85;4.93;;;;;;;22.77;50.31;95274.22;5054022;28;20194;-61
2022/05/16 08:41:57;;;;;;;10.40;6.00;;;;;;;22.98;49.52;95233.50;5055813;28;20255;-59
2022/05/16 08:44:58;;;;;;;10.20;4.57;;;;;;;22.88;48.20;95261.56;5055202;28;20223;-61
2022/05/16 08:47:45;;;;;;;8.70;2.95;;;;;;;22.47;42.82;95268.41;5053921;28;20182;-62
2022/05/16 08:50:24;;;;;;;11.60;2.80;;;;;;;22.47;42.39;95258.03;5055052;28;20217;-61
2022/05/16 08:52:54;;;;;;;3.03;2.70;;;;;;;22.60;40.87;95247.00;5053646;28;20209;-60
2022/05/16 08:55:28;;;;;;;6.93;2.75;;;;;;;22.59;38.53;95305.81;5053524;28;20734;-59
2022/05/16 08:58:05;;;;;;;5.53;3.28;;;;;;;23.09;40.00;95213.97;5054769;28;20722;-62
2022/05/16 09:00:51;;;;;;;4.35;2.53;;;;;;;23.06;40.17;95215.16;5053507;28;20220;-62
2022/05/16 09:03:38;;;;;;;4.72;2.83;;;;;;;23.09;40.29;95194.00;5054605;28;20308;-61
2022/05/16 09:06:13;;;;;;;4.22;2.38;;;;;;;23.50;41.94;95143.88;5053314;28;20651;-60
2022/05/16 09:08:57;;;;;;;6.38;2.47;;;;;;;23.33;37.19;95250.63;5053302;28;20205;-60
2022/05/16 09:11:37;;;;;;;3.88;2.22;;;;;;;23.50;38.19;95226.94;5054566;28;20577;-59
2022/05/16 09:14:07;;;;;;;6.97;3.00;;;;;;;23.73;37.55;95228.22;5054540;28;20198;-60
2022/05/16 09:16:52;;;;;;;5.68;2.65;;;;;;;23.83;36.35;95246.03;5052980;28;20189;-61
2022/05/16 09:19:48;;;;;;;7.28;2.78;;;;;;;23.79;32.21;95356.50;5054342;28;20279;-63
2022/05/16 09:22:51;;;;;;;4.05;2.35;;;;;;;23.62;33.18;95265.13;5054891;28;20190;-62
2022/05/16 09:25:26;;;;;;;13.15;2.35;;;;;;;23.63;32.58;95258.16;5054465;28;20168;-61
2022/05/16 09:30:45;;;;;;;6.57;2.40;;;;;;;24.26;32.38;95234.31;5054498;28;20208;-59
2022/05/16 09:33:42;;;;;;;5.20;2.20;;;;;;;24.70;35.39;95164.28;5054428;28;20280;-59
2022/05/16 09:36:12;;;;;;;3.92;1.70;;;;;;;24.82;32.55;95219.91;5053653;28;20197;-60
2022/05/16 09:38:43;;;;;;;6.50;2.65;;;;;;;24.40;31.57;95225.50;5054019;28;20205;-61
2022/05/16 09:41:25;;;;;;;19.98;3.72;;;;;;;24.66;32.28;95209.91;5054347;28;20185;-63
2022/05/16 09:44:11;;;;;;;21.30;3.58;;;;;;;24.46;30.01;95242.91;5054310;28;20258;-60
2022/05/16 09:46:42;;;;;;;7.70;2.08;;;;;;;24.20;30.39;95223.94;5038817;28;20243;-60
2022/05/16 09:49:19;;;;;;;8.73;2.10;;;;;;;24.36;31.03;95211.31;5053958;28;20348;-61
2022/05/16 09:51:51;;;;;;;6.20;2.95;;;;;;;24.33;31.14;95196.13;5054253;28;20205;-59
2022/05/16 09:54:24;;;;;;;7.35;2.90;;;;;;;24.18;31.45;95178.13;5054093;28;20193;-61
2022/05/16 09:57:19;;;;;;;12.13;2.72;;;;;;;24.62;31.04;95180.13;5054099;28;20545;-61
2022/05/16 09:59:54;;;;;;;8.60;2.65;;;;;;;24.47;31.12;95179.53;5053794;28;20159;-62
2022/05/16 10:02:40;;;;;;;7.80;2.63;;;;;;;24.67;31.33;95169.88;5052527;28;20201;-61
2022/05/16 10:05:29;;;;;;;3.55;2.00;;;;;;;24.85;31.05;95174.47;5053570;28;20223;-61
2022/05/16 10:08:00;;;;;;;5.68;1.95;;;;;;;24.88;30.15;95187.06;5053824;28;20202;-61
2022/05/16 10:10:32;;;;;;;4.30;2.20;;;;;;;25.17;29.65;95185.78;5052215;28;20177;-59
2022/05/16 10:12:58;;;;;;;9.25;2.47;;;;;;;25.80;31.38;95145.78;5053511;28;20594;-59
2022/05/16 10:15:24;;;;;;;6.57;2.60;;;;;;;26.40;30.70;95160.78;5053187;28;20256;-60
2022/05/16 10:17:54;;;;;;;5.80;2.20;;;;;;;26.74;29.52;95187.38;5053313;28;20564;-61
2022/05/16 10:20:25;;;;;;;6.40;1.98;;;;;;;27.15;29.15;95171.88;5052193;28;20251;-60
2022/05/16 10:22:56;;;;;;;4.20;2.10;;;;;;;26.54;28.14;95196.16;5053166;28;20201;-62
2022/05/16 10:25:32;;;;;;;6.57;2.03;;;;;;;25.62;27.53;95216.03;5053233;28;20176;-59
2022/05/16 10:27:58;;;;;;;4.20;1.77;;;;;;;25.46;27.17;95203.50;5051879;28;20193;-62
2022/05/16 10:30:30;;;;;;;2.28;1.67;;;;;;;25.55;27.19;95195.22;5052555;28;20181;-60
2022/05/16 10:36:27;;;;;;;6.70;1.65;;;;;;;26.57;27.24;95179.28;5053441;28;20248;-63
2022/05/16 10:39:07;;;;;;;4.75;1.58;;;;;;;26.49;26.98;95169.94;5052938;28;20212;-60
2022/05/16 10:42:10;;;;;;;4.10;1.92;;;;;;;26.99;28.52;95128.88;5053224;28;20212;-62
2022/05/16 10:44:58;;;;;;;6.32;1.85;;;;;;;27.45;27.97;95138.78;5034251;28;20296;-61
2022/05/16 10:47:49;;;;;;;3.60;1.92;;;;;;;27.77;28.76;95106.16;5052598;28;20654;-61
2022/05/16 10:50:26;;;;;;;6.80;1.92;;;;;;;27.82;27.96;95111.47;5052546;28;20173;-60
2022/05/16 10:53:01;;;;;;;2.88;1.98;;;;;;;28.08;28.40;95110.28;5052399;28;20278;-62
2022/05/16 10:55:37;;;;;;;4.68;1.98;;;;;;;28.32;27.75;95122.34;5052483;28;20195;-61
2022/05/16 10:58:29;;;;;;;2.03;1.77;;;;;;;28.83;27.63;95138.16;5052513;28;20201;-61
2022/05/16 11:01:16;;;;;;;2.22;1.92;;;;;;;29.07;28.05;95099.63;5052599;28;20186;-62
2022/05/16 11:03:41;;;;;;;3.83;1.90;;;;;;;28.87;26.68;95131.44;5051287;28;20212;-59
2022/05/16 11:06:34;;;;;;;2.72;1.92;;;;;;;28.73;27.83;95090.84;5052419;28;20174;-61
2022/05/16 11:09:16;;;;;;;2.83;1.80;;;;;;;28.37;27.14;95113.81;5052170;28;20223;-60
2022/05/16 11:12:04;;;;;;;2.85;1.95;;;;;;;27.93;26.89;95112.53;5052712;28;20217;-62
2022/05/16 11:14:30;;;;;;;4.53;1.83;;;;;;;28.00;27.34;95098.34;5052071;28;20216;-62
2022/05/16 11:17:21;;;;;;;7.57;2.20;;;;;;;28.60;26.34;95121.72;5051233;28;20561;-59
2022/05/16 11:20:04;;;;;;;4.82;1.85;;;;;;;28.91;27.58;95090.69;5051726;28;20211;-62
2022/05/16 11:22:40;;;;;;;4.05;1.70;;;;;;;28.50;25.63;95140.56;5052765;28;20174;-61
2022/05/16 11:25:41;;;;;;;6.82;1.60;;;;;;;27.76;26.55;95106.34;5052172;28;20181;-62
2022/05/16 11:28:16;;;;;;;3.20;1.83;;;;;;;27.28;26.92;95103.81;5052201;28;20201;-60
2022/05/16 11:30:50;;;;;;;2.00;1.60;;;;;;;27.39;27.83;95063.91;5050566;28;20273;-60
2022/05/16 11:33:44;;;;;;;2.42;1.70;;;;;;;28.48;28.08;95064.13;5050637;28;20231;-60
2022/05/16 11:36:19;;;;;;;4.07;1.88;;;;;;;27.93;28.48;95049.78;5052266;28;20597;-63
2022/05/16 11:39:13;;;;;;;4.28;2.00;;;;;;;27.89;27.39;95067.75;5050540;28;20205;-61
2022/05/16 11:42:00;;;;;;;4.38;1.67;;;;;;;27.54;27.69;95055.63;5049874;28;20266;-60
2022/05/16 11:44:30;;;;;;;2.60;1.70;;;;;;;27.65;27.54;95047.84;5052063;28;20208;-60
2022/05/16 11:47:10;;;;;;;4.72;1.70;;;;;;;28.71;27.89;95047.59;5052187;28;20542;-60
2022/05/16 11:49:39;;;;;;;4.40;1.90;;;;;;;28.63;26.29;95097.69;5051688;28;20258;-62
2022/05/16 11:52:16;;;;;;;4.50;1.70;;;;;;;27.77;27.08;95055.69;5052370;28;20718;-62
2022/05/16 11:54:58;;;;;;;1.90;1.63;;;;;;;27.50;26.96;95055.28;5050441;28;20178;-60
2022/05/16 12:00:32;;;;;;;3.03;1.40;;;;;;;28.15;27.27;95043.78;5052082;28;20175;-62
2022/05/16 12:03:01;;;;;;;3.75;1.98;;;;;;;28.52;26.54;95044.31;5050547;28;20713;-62
2022/05/16 12:05:26;;;;;;;3.78;1.80;;;;;;;28.82;26.70;95049.38;5051848;28;20779;-60
2022/05/16 12:08:18;;;;;;;2.83;2.08;;;;;;;29.04;25.67;95068.66;5051751;28;20189;-61
2022/05/16 12:11:03;;;;;;;2.53;1.90;;;;;;;29.59;25.75;95061.81;5023166;28;20202;-62
2022/05/16 12:13:35;;;;;;;2.25;1.65;;;;;;;29.10;24.26;95093.91;5050285;28;20197;-63
2022/05/16 12:16:12;;;;;;;5.78;1.63;;;;;;;28.69;25.86;95044.41;5051663;28;20181;-61
2022/05/16 12:18:42;;;;;;;2.33;1.60;;;;;;;29.71;26.92;94991.75;5051553;28;20667;-60
2022/05/16 12:21:13;;;;;;;1.88;1.58;;;;;;;30.08;25.40;95055.00;5050776;28;20263;-60
2022/05/16 12:23:48;;;;;;;4.10;1.58;;;;;;;29.68;24.90;95059.59;5052073;28;20270;-61
2022/05/16 12:26:30;;;;;;;1.42;1.25;;;;;;;29.40;24.69;95065.69;5051801;28;20187;-62